ソウル/仁川 の空港の天気 - METARとTAF

仁川国際空港 ( RKSI / ICN ) - 韓国 仁川広域市 (ソウル特別市近郊)
飛行場実況気象(Metar)
観測時間09/25 14:30 KST (09/25 05:30 UTC)
風向・風速北東 4m/s
視程10km以上
天気現象
なし
気温23℃
湿度20%
気圧1018hPa
METARRKSI 250530Z 05008KT 010V080 CAVOK 23/M01 Q1018 NOSIG
過去の天気等 Google飛行場航空写真 Wunderground天気予報

過去48時間のMETAR

飛行場予報(TAF)
発表時間: 9/25 14:00 KST (9/25 05:00 UTC)
予報対象時間: 25日15時 KST ~ 26日21時 KST
風向・風速北北西 4m/s
視程10km以上
少しの雲 雲底高度 910m
全天の4割程度の雲 雲底高度 5490m
25日22時 KST ~ 25日23時 KST に徐々に
風向・風速東南東 3m/s
26日0時 KST ~ 26日1時 KST に徐々に
風向・風速東北東 4m/s
TAF RKSI 250500Z 2506/2612 33007KT 9999 FEW030 SCT180 TN15/2521Z TX23/2605Z
BECMG 2513/2514 12006KT
BECMG 2515/2516 06007KT